< < Back
Terminal Aerodrome Forecast


Current Version              Previous Versions:   1  2  3  4  5  6  7  8  9  

Terminal Aerodrome Forecast

325
FTUS44 KMRX 011726
TAFCHA
TAF
KCHA 011726Z 0118/0218 VRB03KT P6SM FEW040 BKN250
     FM020600 00000KT 6SM BR SCT250
     FM021000 00000KT 3SM BR SCT005
     FM021500 15004KT P6SM FEW030 SCT250=

Latest METAR

377
SAUS80 KWBC 021000 CCA
MTRCHA
METAR KCHA 020953Z 00000KT 6SM BR FEW010 SCT015 16/14 A3006 RMK AO2
SLP171 T01610144


USA.gov is the U.S. government's official web portal to all federal, state and local government web resources and services.